Port Austin, Michigan
Current Conditions -  °F | °C
As of 12:55 PM on Monday 24 Nov 2014 (Local Time) from KBAX Reporting Station
Moderate Rain Moderate Rain  
Wind Chill: 53°   Ceiling: 1200
Heat Index: 53°   Visibility: 3mi
Dew Point: 53°   Wind: 8mph
Humidity: 100%   Direction: 230°SW
Pressure: 29.04"   Gusts: NA
Location:  44.05°N, 82.99°W
Report Text: KBAX 241755Z AUTO 23007KT 3SM RA SCT009 OVC012 12/12 A2904 RMK AO2 T01180118 10125 20111
Loading
Personal Weather Stations






























Interactive Weather Map New forecast layout! Learn more

10-Day Weather Forecast

Advertisements
Track Severe Weather on mobile